Time;durP1;ratioP1;P1;durP2;ratioP2;P2;SDS_P1;SDS_P2;PMS_P1;PMS_P2;Temp;Humidity;BMP_temperature;BMP_pressure;BME280_temperature;BME280_humidity;BME280_pressure;Samples;Min_cycle;Max_cycle;Signal;HPM_P1;HPM_P2
2021/09/01 00:02:18;;;;;;;2.85;0.17;;;15.90;99.90;;;;;;5076115;28;20481;-74
2021/09/01 00:04:43;;;;;;;3.70;0.38;;;15.90;99.90;;;;;;5075671;28;20024;-75
2021/09/01 00:07:09;;;;;;;7.50;1.20;;;15.90;99.90;;;;;;5094071;28;20089;-74
2021/09/01 00:09:34;;;;;;;3.13;0.28;;;15.90;99.90;;;;;;5094361;28;20045;-75
2021/09/01 00:12:00;;;;;;;7.35;1.08;;;15.90;99.90;;;;;;5094275;28;20028;-74
2021/09/01 00:14:26;;;;;;;7.45;0.47;;;15.90;99.90;;;;;;5075769;28;20055;-76
2021/09/01 00:16:52;;;;;;;3.70;0.43;;;15.80;99.90;;;;;;5094692;28;20021;-77
2021/09/01 00:19:18;;;;;;;6.47;0.70;;;15.80;99.90;;;;;;5093357;28;20404;-76
2021/09/01 00:22:01;;;;;;;8.75;0.95;;;15.80;99.90;;;;;;5093905;28;20016;-76
2021/09/01 00:24:27;;;;;;;8.77;1.30;;;15.70;99.90;;;;;;5055532;28;20131;-75
2021/09/01 00:26:52;;;;;;;4.18;0.40;;;15.70;99.90;;;;;;5076543;28;20062;-74
2021/09/01 00:29:18;;;;;;;4.03;0.13;;;15.70;99.90;;;;;;5093793;28;20113;-75
2021/09/01 00:31:44;;;;;;;8.18;0.77;;;15.70;99.90;;;;;;5094022;28;20027;-77
2021/09/01 00:34:10;;;;;;;16.88;0.93;;;15.80;99.90;;;;;;5093826;28;20378;-75
2021/09/01 00:36:36;;;;;;;7.32;0.95;;;15.70;99.90;;;;;;5094009;28;20016;-76
2021/09/01 00:39:02;;;;;;;5.32;1.33;;;15.70;99.90;;;;;;5075863;28;20047;-77
2021/09/01 00:41:29;;;;;;;4.05;0.10;;;15.80;99.90;;;;;;5093886;28;20468;-76
2021/09/01 00:43:59;;;;;;;6.15;0.52;;;15.80;99.90;;;;;;5093562;28;20026;-74
2021/09/01 00:46:25;;;;;;;6.10;0.80;;;15.80;99.90;;;;;;5094170;28;20366;-76
2021/09/01 00:48:52;;;;;;;10.63;1.00;;;15.80;99.90;;;;;;5075624;28;20097;-77
2021/09/01 00:51:19;;;;;;;8.32;1.02;;;15.80;99.90;;;;;;5075624;28;20020;-77
2021/09/01 00:53:46;;;;;;;5.95;0.20;;;15.90;99.90;;;;;;5075391;28;20549;-77
2021/09/01 00:56:21;;;;;;;11.85;1.10;;;15.90;99.90;;;;;;5093650;28;20069;-74
2021/09/01 00:58:48;;;;;;;4.50;0.30;;;15.90;99.90;;;;;;5093687;28;20081;-77
2021/09/01 01:01:15;;;;;;;3.95;0.57;;;15.90;99.90;;;;;;5093330;28;20028;-74
2021/09/01 01:03:48;;;;;;;6.72;0.55;;;15.90;99.90;;;;;;5093396;28;20110;-74
2021/09/01 01:06:25;;;;;;;9.38;1.40;;;15.90;99.90;;;;;;5093320;28;20031;-75
2021/09/01 01:08:52;;;;;;;3.47;0.20;;;15.90;99.90;;;;;;5092879;28;20024;-75
2021/09/01 01:11:18;;;;;;;4.68;1.02;;;15.80;99.90;;;;;;5075974;28;20028;-75
2021/09/01 01:13:48;;;;;;;4.32;0.32;;;15.80;99.90;;;;;;5093797;28;20111;-74
2021/09/01 01:16:24;;;;;;;6.07;0.70;;;15.80;99.90;;;;;;5093291;28;20031;-75
2021/09/01 01:18:51;;;;;;;4.22;0.57;;;15.80;99.90;;;;;;5093620;28;20055;-76
2021/09/01 01:21:19;;;;;;;6.22;0.38;;;15.80;99.90;;;;;;5093571;28;20028;-77
2021/09/01 01:23:47;;;;;;;6.70;0.57;;;15.70;99.90;;;;;;5093729;28;20024;-76
2021/09/01 01:26:13;;;;;;;5.45;0.40;;;15.60;99.90;;;;;;5093846;28;20664;-77
2021/09/01 01:28:38;;;;;;;4.68;0.20;;;15.70;99.90;;;;;;5075316;28;20113;-74
2021/09/01 01:31:04;;;;;;;4.32;1.10;;;15.70;99.90;;;;;;5097407;28;20032;-76
2021/09/01 01:33:29;;;;;;;6.85;1.00;;;15.60;99.90;;;;;;5097678;28;20020;-77
2021/09/01 01:35:55;;;;;;;10.20;0.70;;;15.60;99.90;;;;;;5097196;28;20023;-77
2021/09/01 01:38:20;;;;;;;7.35;0.38;;;15.60;99.90;;;;;;5097079;28;20035;-76
2021/09/01 01:40:47;;;;;;;5.10;0.47;;;15.50;99.90;;;;;;5097749;28;20020;-75
2021/09/01 01:43:13;;;;;;;3.13;0.30;;;15.50;99.90;;;;;;5078644;28;20020;-77
2021/09/01 01:45:43;;;;;;;10.05;0.95;;;15.50;99.90;;;;;;5078924;28;20016;-77
2021/09/01 01:48:10;;;;;;;5.50;0.25;;;15.50;99.90;;;;;;5078699;28;20080;-75
2021/09/01 01:50:40;;;;;;;7.53;0.45;;;15.50;99.90;;;;;;5096908;28;20028;-77
2021/09/01 01:53:07;;;;;;;9.70;1.10;;;15.40;99.90;;;;;;5096866;28;20054;-77
2021/09/01 01:55:33;;;;;;;6.97;0.75;;;15.40;99.90;;;;;;5096880;28;20406;-77
2021/09/01 01:57:59;;;;;;;6.32;0.50;;;15.40;99.90;;;;;;5078629;28;20039;-77
2021/09/01 02:00:24;;;;;;;11.88;0.63;;;15.40;99.90;;;;;;5096745;28;20020;-77
2021/09/01 02:02:50;;;;;;;3.58;0.50;;;15.40;99.90;;;;;;5078383;28;20104;-76
2021/09/01 02:05:16;;;;;;;9.40;0.68;;;15.40;99.90;;;;;;5096497;28;20024;-77
2021/09/01 02:07:41;;;;;;;10.05;0.73;;;15.40;99.90;;;;;;5097509;22;20049;-76
2021/09/01 02:10:09;;;;;;;4.63;0.38;;;15.40;99.90;;;;;;5076935;28;20031;-76
2021/09/01 02:12:38;;;;;;;3.22;0.20;;;15.40;99.90;;;;;;5058159;28;20036;-75
2021/09/01 02:15:05;;;;;;;4.85;0.60;;;15.40;99.90;;;;;;5073426;28;20021;-77
2021/09/01 02:17:31;;;;;;;3.88;0.60;;;15.40;99.90;;;;;;5076581;28;20035;-74
2021/09/01 02:19:58;;;;;;;10.32;1.58;;;15.30;99.90;;;;;;5058092;28;20023;-76
2021/09/01 02:22:24;;;;;;;8.35;0.40;;;15.40;99.90;;;;;;5073191;28;20029;-76
2021/09/01 02:24:49;;;;;;;8.98;0.55;;;15.40;99.90;;;;;;5075032;28;20024;-76
2021/09/01 02:27:15;;;;;;;3.42;0.60;;;15.40;99.90;;;;;;5083777;28;20052;-75
2021/09/01 02:29:41;;;;;;;7.32;0.82;;;15.40;99.90;;;;;;5096250;28;20053;-74
2021/09/01 02:32:09;;;;;;;5.03;0.55;;;15.40;99.90;;;;;;5096341;28;20084;-77
2021/09/01 02:34:34;;;;;;;3.17;0.60;;;15.40;99.90;;;;;;5077906;28;20027;-76
2021/09/01 02:37:00;;;;;;;7.00;1.55;;;15.30;99.90;;;;;;5082380;28;20401;-75
2021/09/01 02:39:25;;;;;;;11.48;1.15;;;15.40;99.90;;;;;;5076125;28;20025;-78
2021/09/01 02:41:52;;;;;;;8.35;0.73;;;15.40;99.90;;;;;;5091328;28;20481;-78
2021/09/01 02:44:17;;;;;;;4.18;0.40;;;15.40;99.90;;;;;;5078723;28;20026;-78
2021/09/01 02:46:46;;;;;;;5.00;0.35;;;15.40;99.90;;;;;;5076267;28;20556;-77
2021/09/01 02:49:12;;;;;;;8.25;0.93;;;15.40;99.90;;;;;;5058051;28;20036;-78
2021/09/01 02:51:38;;;;;;;8.85;0.93;;;15.40;99.90;;;;;;5060033;28;20516;-77
2021/09/01 02:54:04;;;;;;;6.18;0.17;;;15.30;99.90;;;;;;5076297;28;20036;-75
2021/09/01 02:56:30;;;;;;;7.93;0.85;;;15.30;99.90;;;;;;5075443;28;20028;-75
2021/09/01 02:58:55;;;;;;;9.30;0.40;;;15.30;99.90;;;;;;5075329;28;20386;-75
2021/09/01 03:01:21;;;;;;;7.18;0.50;;;15.30;99.90;;;;;;5075254;28;20020;-75
2021/09/01 03:03:47;;;;;;;6.60;0.50;;;15.30;99.90;;;;;;5075131;28;20021;-75
2021/09/01 03:06:12;;;;;;;4.93;0.38;;;15.30;99.90;;;;;;5075114;28;20371;-75
2021/09/01 03:08:38;;;;;;;3.65;0.50;;;15.30;99.90;;;;;;5075001;28;20077;-75
2021/09/01 03:11:04;;;;;;;6.80;0.90;;;15.30;99.90;;;;;;5075398;28;20060;-74
2021/09/01 03:13:29;;;;;;;7.05;1.00;;;15.30;99.90;;;;;;5092375;28;20063;-76
2021/09/01 03:15:55;;;;;;;6.22;0.88;;;15.30;99.90;;;;;;5095736;28;20020;-76
2021/09/01 03:18:20;;;;;;;8.40;1.20;;;15.30;99.90;;;;;;5076243;28;20443;-74
2021/09/01 03:20:46;;;;;;;5.57;0.70;;;15.30;99.90;;;;;;5057506;28;20470;-75
2021/09/01 03:23:11;;;;;;;4.30;0.30;;;15.30;99.90;;;;;;5074944;28;20064;-74
2021/09/01 03:25:37;;;;;;;8.07;1.40;;;15.30;99.90;;;;;;5074879;28;20482;-75
2021/09/01 03:28:03;;;;;;;7.25;1.02;;;15.30;99.90;;;;;;5075019;28;20081;-76
2021/09/01 03:30:29;;;;;;;3.00;0.45;;;15.30;99.90;;;;;;5057263;28;20070;-77
2021/09/01 03:32:56;;;;;;;2.17;0.17;;;15.30;99.90;;;;;;5075176;28;20024;-76
2021/09/01 03:35:22;;;;;;;9.55;0.63;;;15.30;99.90;;;;;;5074596;28;20031;-76
2021/09/01 03:37:47;;;;;;;4.03;0.50;;;15.30;99.90;;;;;;5075407;28;20076;-76
2021/09/01 03:40:14;;;;;;;5.05;0.40;;;15.30;99.90;;;;;;5074786;28;20016;-74
2021/09/01 03:42:42;;;;;;;10.30;0.77;;;15.20;99.90;;;;;;5074394;28;20032;-76
2021/09/01 03:45:09;;;;;;;5.68;0.60;;;15.20;99.90;;;;;;5036428;28;20025;-76
2021/09/01 03:47:35;;;;;;;6.57;0.50;;;15.20;99.90;;;;;;5066381;28;20032;-77
2021/09/01 03:50:01;;;;;;;3.40;0.35;;;15.20;99.90;;;;;;5056547;28;20028;-77
2021/09/01 03:52:27;;;;;;;3.72;0.43;;;15.20;99.90;;;;;;5073257;28;20035;-77
2021/09/01 03:54:52;;;;;;;4.10;0.40;;;15.20;99.90;;;;;;5074139;28;20025;-77
2021/09/01 03:57:18;;;;;;;8.77;0.52;;;15.20;99.90;;;;;;5067034;28;20123;-77
2021/09/01 03:59:43;;;;;;;5.75;0.77;;;15.20;99.90;;;;;;5056194;28;20025;-77
2021/09/01 04:02:09;;;;;;;1.42;0.30;;;15.20;99.90;;;;;;5056291;28;20031;-77
2021/09/01 04:04:35;;;;;;;1.70;0.30;;;15.30;99.90;;;;;;5073800;28;20036;-77
2021/09/01 04:07:02;;;;;;;3.13;0.57;;;15.10;99.90;;;;;;5074106;28;20374;-77
2021/09/01 04:09:28;;;;;;;4.10;0.63;;;15.10;99.90;;;;;;5074523;28;20082;-77
2021/09/01 04:11:57;;;;;;;4.60;0.98;;;15.10;99.90;;;;;;5061701;28;20386;-77
2021/09/01 04:14:23;;;;;;;6.32;0.93;;;15.10;99.90;;;;;;5073556;28;20032;-77
2021/09/01 04:16:49;;;;;;;8.60;0.45;;;15.10;99.90;;;;;;5078033;28;20023;-77
2021/09/01 04:19:14;;;;;;;5.28;0.40;;;15.10;99.90;;;;;;5094182;28;20024;-75
2021/09/01 04:21:40;;;;;;;3.90;0.57;;;15.10;99.90;;;;;;5094209;28;20354;-75
2021/09/01 04:24:05;;;;;;;5.68;0.22;;;15.10;99.90;;;;;;5094470;28;20024;-74
2021/09/01 04:26:31;;;;;;;3.40;0.32;;;15.00;99.90;;;;;;5061539;28;20101;-76
2021/09/01 04:28:57;;;;;;;4.05;0.45;;;15.10;99.90;;;;;;5073817;28;20029;-75
2021/09/01 04:31:22;;;;;;;3.40;0.30;;;15.10;99.90;;;;;;5079239;28;20491;-76
2021/09/01 04:33:48;;;;;;;4.20;0.40;;;15.10;99.90;;;;;;5075753;28;20111;-75
2021/09/01 04:36:13;;;;;;;3.17;0.75;;;15.10;99.90;;;;;;5075923;28;20043;-75
2021/09/01 04:38:39;;;;;;;5.28;0.20;;;15.10;99.90;;;;;;5094258;28;20027;-76
2021/09/01 04:41:05;;;;;;;9.05;1.08;;;15.10;99.90;;;;;;5093950;28;20043;-76
2021/09/01 04:43:30;;;;;;;7.78;0.55;;;15.10;99.90;;;;;;5102680;22;20105;-74
2021/09/01 04:45:56;;;;;;;4.80;0.55;;;15.10;99.90;;;;;;5093678;28;20023;-75
2021/09/01 04:48:24;;;;;;;6.47;0.57;;;15.10;99.90;;;;;;5075401;28;20016;-76
2021/09/01 04:50:50;;;;;;;3.00;0.25;;;15.10;99.90;;;;;;5088099;22;20106;-74
2021/09/01 04:53:16;;;;;;;5.72;0.82;;;15.10;99.90;;;;;;5093532;28;20020;-76
2021/09/01 04:55:41;;;;;;;1.27;0.20;;;15.00;99.90;;;;;;5093924;28;20012;-74
2021/09/01 04:58:07;;;;;;;7.25;0.80;;;15.00;99.90;;;;;;5074949;28;20067;-74
2021/09/01 05:00:32;;;;;;;8.18;1.27;;;15.10;99.90;;;;;;5072886;28;20079;-75
2021/09/01 05:02:58;;;;;;;5.03;1.02;;;15.00;99.90;;;;;;5072233;28;20104;-77
2021/09/01 05:05:23;;;;;;;4.47;0.63;;;15.00;99.90;;;;;;5071545;28;20020;-75
2021/09/01 05:07:49;;;;;;;4.97;0.55;;;15.10;99.90;;;;;;5059786;28;20028;-78
2021/09/01 05:10:14;;;;;;;3.47;0.55;;;15.10;99.90;;;;;;5055487;28;20020;-76
2021/09/01 05:12:40;;;;;;;8.75;0.82;;;15.00;99.90;;;;;;5086366;28;20020;-76
2021/09/01 05:15:06;;;;;;;4.35;0.10;;;15.00;99.90;;;;;;5075365;28;20028;-75
2021/09/01 05:17:32;;;;;;;2.70;0.20;;;15.00;99.90;;;;;;5066106;28;20048;-74
2021/09/01 05:19:57;;;;;;;5.57;0.43;;;15.00;99.90;;;;;;5073293;28;20024;-74
2021/09/01 05:22:24;;;;;;;3.08;0.50;;;15.00;99.90;;;;;;5085357;28;20027;-75
2021/09/01 05:25:08;;;;;;;5.43;0.80;;;15.00;99.90;;;;;;5094446;28;20052;-78
2021/09/01 05:27:36;;;;;;;4.80;0.30;;;15.10;99.90;;;;;;5094284;28;20023;-78
2021/09/01 05:30:09;;;;;;;6.50;0.77;;;15.10;99.90;;;;;;5076176;28;20020;-80
2021/09/01 05:32:39;;;;;;;5.47;0.90;;;15.10;99.90;;;;;;5073009;28;20024;-80
2021/09/01 05:35:07;;;;;;;9.45;1.17;;;15.10;99.90;;;;;;5072486;28;20070;-77
2021/09/01 05:37:33;;;;;;;5.50;0.82;;;15.10;99.90;;;;;;5074070;28;20016;-79
2021/09/01 05:40:00;;;;;;;8.88;0.85;;;15.10;99.90;;;;;;5073692;28;20478;-78
2021/09/01 05:42:28;;;;;;;8.20;0.80;;;15.10;99.90;;;;;;5084935;28;20020;-78
2021/09/01 05:44:55;;;;;;;4.53;0.60;;;15.10;99.90;;;;;;5075777;28;20069;-78
2021/09/01 05:47:22;;;;;;;6.30;0.50;;;15.10;99.90;;;;;;5060454;28;20112;-77
2021/09/01 05:49:50;;;;;;;8.00;1.35;;;15.10;99.90;;;;;;5057762;28;20024;-77
2021/09/01 05:52:17;;;;;;;7.25;1.23;;;15.20;99.90;;;;;;5076817;28;20029;-77
2021/09/01 05:54:45;;;;;;;3.92;0.73;;;15.20;99.90;;;;;;5058209;28;20027;-78
2021/09/01 05:57:19;;;;;;;4.10;0.60;;;15.20;99.90;;;;;;5078331;28;20386;-78
2021/09/01 05:59:48;;;;;;;5.88;0.75;;;15.20;99.90;;;;;;5076654;28;20444;-78
2021/09/01 06:02:20;;;;;;;4.25;0.52;;;15.30;99.90;;;;;;5077215;28;20474;-78
2021/09/01 06:04:47;;;;;;;5.28;0.20;;;15.30;99.90;;;;;;5076470;28;20029;-78
2021/09/01 06:07:16;;;;;;;4.15;0.40;;;15.30;99.90;;;;;;5058870;28;20416;-78
2021/09/01 06:09:44;;;;;;;3.15;0.40;;;15.40;99.90;;;;;;5077028;28;20028;-78
2021/09/01 06:12:15;;;;;;;5.97;0.50;;;15.40;99.90;;;;;;5058208;28;20024;-74
2021/09/01 06:14:41;;;;;;;5.15;0.55;;;15.40;99.90;;;;;;5058071;28;20024;-75
2021/09/01 06:17:06;;;;;;;4.05;0.45;;;15.50;99.90;;;;;;5078294;28;20500;-75
2021/09/01 06:19:32;;;;;;;3.38;0.22;;;15.50;99.90;;;;;;5061203;28;20020;-74
2021/09/01 06:21:58;;;;;;;3.75;0.30;;;15.50;99.90;;;;;;5079803;28;20355;-76
2021/09/01 06:24:24;;;;;;;7.05;0.40;;;15.50;99.90;;;;;;5062316;28;20050;-75
2021/09/01 06:26:50;;;;;;;4.03;0.35;;;15.60;99.90;;;;;;5079202;28;20016;-74
2021/09/01 06:29:15;;;;;;;5.45;0.47;;;15.70;99.90;;;;;;5079103;28;20016;-74
2021/09/01 06:31:41;;;;;;;6.53;0.43;;;15.70;99.90;;;;;;5061145;28;20025;-74
2021/09/01 06:34:06;;;;;;;5.53;0.30;;;15.80;99.90;;;;;;5079422;28;20028;-74
2021/09/01 06:36:32;;;;;;;6.20;0.43;;;15.80;99.90;;;;;;5061165;28;20035;-74
2021/09/01 06:38:57;;;;;;;8.35;1.33;;;15.90;99.90;;;;;;5079110;28;20020;-74
2021/09/01 06:41:23;;;;;;;5.47;0.20;;;15.90;99.90;;;;;;5078854;28;20017;-74
2021/09/01 06:43:49;;;;;;;3.28;0.43;;;16.00;99.90;;;;;;5060979;28;20027;-75
2021/09/01 06:46:14;;;;;;;4.30;0.40;;;16.10;99.90;;;;;;5079570;28;20031;-74
2021/09/01 06:48:40;;;;;;;3.88;0.17;;;16.10;99.90;;;;;;5078888;28;20485;-75
2021/09/01 06:51:05;;;;;;;3.75;0.28;;;16.20;99.90;;;;;;5078968;28;20031;-75
2021/09/01 06:53:31;;;;;;;5.40;0.17;;;16.20;99.90;;;;;;5078620;28;20028;-74
2021/09/01 06:55:56;;;;;;;2.80;0.43;;;16.30;99.90;;;;;;5078442;28;20032;-74
2021/09/01 06:58:22;;;;;;;7.30;0.10;;;16.30;99.90;;;;;;5060951;28;20017;-74
2021/09/01 07:00:47;;;;;;;2.75;0.50;;;16.40;99.90;;;;;;5079106;28;20101;-75
2021/09/01 07:03:13;;;;;;;5.68;0.00;;;16.40;99.90;;;;;;5079218;28;20017;-74
2021/09/01 07:05:39;;;;;;;3.75;0.40;;;16.40;99.90;;;;;;5078500;28;20024;-74
2021/09/01 07:08:15;;;;;;;7.05;0.40;;;16.50;99.90;;;;;;5060651;28;20025;-74
2021/09/01 07:10:42;;;;;;;2.80;0.60;;;16.50;99.90;;;;;;5078825;28;20044;-75
2021/09/01 07:13:08;;;;;;;6.90;0.88;;;16.50;99.90;;;;;;5078919;28;20021;-74
2021/09/01 07:15:33;;;;;;;10.35;1.02;;;16.60;99.90;;;;;;5078320;28;20036;-74
2021/09/01 07:17:59;;;;;;;5.13;0.75;;;16.50;99.90;;;;;;5078583;28;20021;-74
2021/09/01 07:20:25;;;;;;;3.22;0.30;;;16.60;99.90;;;;;;5060331;28;20083;-75
2021/09/01 07:22:51;;;;;;;3.92;0.43;;;16.60;99.90;;;;;;5060266;28;20021;-75
2021/09/01 07:25:16;;;;;;;4.90;0.68;;;16.70;99.90;;;;;;5078313;28;20082;-74
2021/09/01 07:27:42;;;;;;;6.65;0.63;;;16.70;99.90;;;;;;5078134;28;20047;-74
2021/09/01 07:30:09;;;;;;;4.53;0.47;;;16.80;99.90;;;;;;5060603;28;20492;-74
2021/09/01 07:32:34;;;;;;;3.72;0.65;;;16.90;99.90;;;;;;5078123;28;20489;-74
2021/09/01 07:35:00;;;;;;;3.03;1.08;;;16.90;99.90;;;;;;5077870;28;20048;-74
2021/09/01 07:37:26;;;;;;;4.05;0.10;;;17.00;99.90;;;;;;5060271;28;20021;-74
2021/09/01 07:39:51;;;;;;;7.20;0.43;;;17.00;99.90;;;;;;5078423;28;20414;-74
2021/09/01 07:42:19;;;;;;;5.13;0.30;;;17.10;99.90;;;;;;5078287;28;20028;-74
2021/09/01 07:44:45;;;;;;;4.93;0.43;;;17.10;99.90;;;;;;5077561;28;20021;-74
2021/09/01 07:47:11;;;;;;;7.65;1.00;;;17.20;99.90;;;;;;5060104;28;20273;-74
2021/09/01 07:49:36;;;;;;;4.93;1.20;;;17.20;99.90;;;;;;5078100;28;20108;-74
2021/09/01 07:52:03;;;;;;;7.78;0.17;;;17.20;99.90;;;;;;5059487;28;20063;-74
2021/09/01 07:54:28;;;;;;;6.15;0.38;;;17.20;99.90;;;;;;5060087;28;20039;-74
2021/09/01 07:56:54;;;;;;;9.38;0.60;;;17.20;99.90;;;;;;5059932;28;20020;-75
2021/09/01 07:59:20;;;;;;;4.03;0.20;;;17.20;99.90;;;;;;5059793;28;20074;-74
2021/09/01 08:01:45;;;;;;;2.92;0.47;;;17.30;99.90;;;;;;5059601;28;20016;-74
2021/09/01 08:04:11;;;;;;;4.47;0.65;;;17.30;99.90;;;;;;5077794;28;20028;-75
2021/09/01 08:06:36;;;;;;;11.18;0.98;;;17.40;99.90;;;;;;5060019;28;20020;-74
2021/09/01 08:09:02;;;;;;;6.70;0.28;;;17.40;99.90;;;;;;5077850;28;20027;-74
2021/09/01 08:11:28;;;;;;;5.90;0.45;;;17.50;99.90;;;;;;5059811;28;20037;-75
2021/09/01 08:13:53;;;;;;;4.10;0.47;;;17.50;99.90;;;;;;5077219;28;20023;-75
2021/09/01 08:16:19;;;;;;;3.25;0.13;;;17.50;99.90;;;;;;5078154;28;20021;-74
2021/09/01 08:18:44;;;;;;;4.13;0.45;;;17.50;99.90;;;;;;5059528;28;20119;-75
2021/09/01 08:21:10;;;;;;;3.53;0.55;;;17.60;99.90;;;;;;5077037;28;20080;-75
2021/09/01 08:23:36;;;;;;;6.55;0.40;;;17.50;99.90;;;;;;5077516;28;20016;-75
2021/09/01 08:26:01;;;;;;;4.15;0.30;;;17.60;99.90;;;;;;5077352;28;20154;-74
2021/09/01 08:28:30;;;;;;;3.60;0.30;;;17.70;99.90;;;;;;5059105;28;20028;-74
2021/09/01 08:30:56;;;;;;;;;;;17.70;99.90;;;;;;5077366;28;20033;-75
2021/09/01 08:33:21;;;;;;;6.10;0.22;;;17.80;99.90;;;;;;5077281;28;20372;-74
2021/09/01 08:35:47;;;;;;;3.92;0.00;;;17.80;99.90;;;;;;5058733;28;20017;-75
2021/09/01 08:38:12;;;;;;;2.88;0.30;;;17.80;99.90;;;;;;5076441;28;20056;-74
2021/09/01 08:40:38;;;;;;;2.47;0.00;;;17.80;99.90;;;;;;5076431;28;20020;-75
2021/09/01 08:43:05;;;;;;;3.35;0.70;;;17.90;99.90;;;;;;5058978;28;20021;-74
2021/09/01 08:45:31;;;;;;;6.13;0.90;;;18.00;99.90;;;;;;5076813;28;20021;-75
2021/09/01 08:47:57;;;;;;;5.65;0.45;;;17.90;99.90;;;;;;5059280;28;20036;-75
2021/09/01 08:50:27;;;;;;;4.20;0.43;;;18.00;99.90;;;;;;5076539;28;20028;-75
2021/09/01 08:52:52;;;;;;;2.60;0.20;;;18.00;99.90;;;;;;5058765;28;20029;-75
2021/09/01 08:55:19;;;;;;;4.07;0.03;;;18.10;99.90;;;;;;5077054;28;20032;-74
2021/09/01 08:57:44;;;;;;;4.20;0.20;;;18.20;99.90;;;;;;5059011;28;20016;-74
2021/09/01 09:00:11;;;;;;;4.45;0.10;;;18.30;99.90;;;;;;5077026;28;20474;-75
2021/09/01 09:02:36;;;;;;;5.25;0.30;;;18.40;99.90;;;;;;5076179;28;20421;-75
2021/09/01 09:05:07;;;;;;;1.90;0.08;;;18.40;99.90;;;;;;5058713;28;20016;-75
2021/09/01 09:08:04;;;;;;;4.13;0.45;;;18.50;99.90;;;;;;5076632;28;20017;-74
2021/09/01 09:10:44;;;;;;;3.15;0.10;;;18.50;99.90;;;;;;5049553;28;20040;-75
2021/09/01 09:13:12;;;;;;;3.28;0.22;;;18.60;99.90;;;;;;5076032;28;20074;-75
2021/09/01 09:15:40;;;;;;;4.32;0.57;;;18.70;99.90;;;;;;5076444;28;20048;-74
2021/09/01 09:18:26;;;;;;;2.50;0.30;;;18.70;99.90;;;;;;5076851;28;20031;-74
2021/09/01 09:21:08;;;;;;;5.05;0.30;;;18.80;99.90;;;;;;5058613;28;20412;-74
2021/09/01 09:23:33;;;;;;;3.92;0.30;;;18.80;99.90;;;;;;5076865;28;20052;-74
2021/09/01 09:26:17;;;;;;;2.75;0.43;;;18.90;99.90;;;;;;5058533;28;20027;-74
2021/09/01 09:28:43;;;;;;;2.25;0.28;;;18.80;99.90;;;;;;5076680;28;20022;-74
2021/09/01 09:31:08;;;;;;;6.43;0.28;;;18.70;99.90;;;;;;5076567;28;20015;-74
2021/09/01 09:33:40;;;;;;;9.85;0.63;;;18.60;99.90;;;;;;5075915;28;20020;-74
2021/09/01 09:36:06;;;;;;;2.70;0.15;;;18.50;99.90;;;;;;5076445;28;20076;-74
2021/09/01 09:38:41;;;;;;;3.60;0.17;;;18.40;99.90;;;;;;5076344;28;20055;-74
2021/09/01 09:41:25;;;;;;;3.40;0.28;;;18.30;99.90;;;;;;5076249;28;20066;-74
2021/09/01 09:44:00;;;;;;;4.00;0.00;;;18.20;99.90;;;;;;5076497;28;20028;-74
2021/09/01 09:46:26;;;;;;;1.55;0.00;;;18.10;99.90;;;;;;5076236;28;20042;-75
2021/09/01 09:48:53;;;;;;;3.25;0.25;;;18.20;99.90;;;;;;5076319;28;20024;-74
2021/09/01 09:51:36;;;;;;;2.60;0.10;;;18.30;99.90;;;;;;5078681;28;20028;-75
2021/09/01 09:54:17;;;;;;;5.20;0.00;;;18.30;99.90;;;;;;5079730;28;20017;-74
2021/09/01 09:56:43;;;;;;;1.95;0.30;;;18.50;99.90;;;;;;5080016;28;20040;-74
2021/09/01 09:59:17;;;;;;;4.22;0.20;;;18.60;99.90;;;;;;5062021;28;20025;-74
2021/09/01 10:01:44;;;;;;;3.80;0.22;;;18.80;99.90;;;;;;5062180;28;20032;-74
2021/09/01 10:04:10;;;;;;;5.47;0.20;;;18.90;99.90;;;;;;5079681;28;20070;-74
2021/09/01 10:06:36;;;;;;;3.90;0.35;;;19.00;99.90;;;;;;5080048;28;20021;-74
2021/09/01 10:09:03;;;;;;;3.35;0.20;;;19.10;99.90;;;;;;5080149;28;20060;-74
2021/09/01 10:11:31;;;;;;;2.15;0.20;;;19.30;99.90;;;;;;5062151;28;20111;-74
2021/09/01 10:13:57;;;;;;;4.55;0.25;;;19.40;99.90;;;;;;5061117;28;20119;-74
2021/09/01 10:16:23;;;;;;;1.98;0.47;;;19.50;99.90;;;;;;5079617;28;20055;-74
2021/09/01 10:19:04;;;;;;;5.30;0.20;;;19.40;99.90;;;;;;5079527;28;20080;-74
2021/09/01 10:21:32;;;;;;;1.42;0.10;;;19.40;99.90;;;;;;5080091;28;20056;-74
2021/09/01 10:24:28;;;;;;;3.60;0.00;;;19.40;99.90;;;;;;5079483;28;20094;-74
2021/09/01 10:27:16;;;;;;;2.58;0.10;;;19.40;99.90;;;;;;5079257;28;20090;-74
2021/09/01 10:29:58;;;;;;;3.47;0.28;;;19.40;99.90;;;;;;5061410;28;20036;-74
2021/09/01 10:32:42;;;;;;;5.38;0.90;;;19.60;99.90;;;;;;5079715;28;20053;-74
2021/09/01 10:35:16;;;;;;;2.95;0.00;;;19.80;99.90;;;;;;5078978;28;20036;-74
2021/09/01 10:37:56;;;;;;;2.20;0.45;;;19.90;99.90;;;;;;5079307;28;20020;-74
2021/09/01 10:40:21;;;;;;;3.05;0.20;;;20.00;99.90;;;;;;5079435;28;20474;-74
2021/09/01 10:42:49;;;;;;;12.18;0.47;;;20.20;99.90;;;;;;5061140;28;20074;-74
2021/09/01 10:45:20;;;;;;;1.50;0.10;;;20.40;99.90;;;;;;5079448;28;20029;-74
2021/09/01 10:47:52;;;;;;;2.28;0.00;;;20.40;99.90;;;;;;5079254;28;20023;-74
2021/09/01 10:50:24;;;;;;;2.22;0.00;;;20.40;99.90;;;;;;5078835;28;20058;-74
2021/09/01 10:53:27;;;;;;;2.97;0.38;;;20.40;99.90;;;;;;5061081;28;20387;-74
2021/09/01 10:56:13;;;;;;;1.67;0.08;;;20.50;99.90;;;;;;5060685;28;20466;-74
2021/09/01 10:58:44;;;;;;;2.40;0.10;;;20.70;99.90;;;;;;5079090;28;20397;-74
2021/09/01 11:01:14;;;;;;;3.45;0.10;;;20.70;99.90;;;;;;5060358;28;20023;-74
2021/09/01 11:03:48;;;;;;;2.17;0.00;;;20.80;99.90;;;;;;5078101;28;20035;-74
2021/09/01 11:06:17;;;;;;;2.20;0.17;;;20.80;99.90;;;;;;5060937;28;20059;-75
2021/09/01 11:09:05;;;;;;;5.22;0.10;;;20.90;99.90;;;;;;5060657;28;20027;-74
2021/09/01 11:11:54;;;;;;;1.02;0.00;;;21.00;99.90;;;;;;5079236;28;20081;-75
2021/09/01 11:14:36;;;;;;;1.90;0.40;;;21.00;99.90;;;;;;5078570;28;20025;-74
2021/09/01 11:17:05;;;;;;;3.75;0.40;;;21.10;99.90;;;;;;5060755;28;20020;-74
2021/09/01 11:19:31;;;;;;;4.25;0.10;;;21.10;99.90;;;;;;5078219;28;20043;-74
2021/09/01 11:21:59;;;;;;;1.20;0.00;;;20.90;99.90;;;;;;5078567;28;20020;-74
2021/09/01 11:24:25;;;;;;;0.70;0.00;;;20.80;99.90;;;;;;5077937;28;20016;-74
2021/09/01 11:26:55;;;;;;;1.27;0.00;;;20.60;99.90;;;;;;5077997;28;20440;-74
2021/09/01 11:29:34;;;;;;;0.50;0.10;;;20.40;99.90;;;;;;5078767;28;20058;-75
2021/09/01 11:32:01;;;;;;;1.70;0.00;;;20.10;99.90;;;;;;5078004;28;20013;-75
2021/09/01 11:34:26;;;;;;;2.40;0.00;;;19.90;99.90;;;;;;5056809;28;20024;-75
2021/09/01 11:36:52;;;;;;;0.82;0.00;;;19.70;99.90;;;;;;5074962;28;20024;-75
2021/09/01 11:39:18;;;;;;;0.65;0.20;;;19.50;99.90;;;;;;5056934;28;20020;-76
2021/09/01 11:41:47;;;;;;;2.25;0.20;;;19.50;99.90;;;;;;5074699;28;20024;-75
2021/09/01 11:44:14;;;;;;;5.22;0.45;;;19.40;99.90;;;;;;5074754;28;20020;-76
2021/09/01 11:46:40;;;;;;;2.72;0.20;;;19.30;99.90;;;;;;5074647;28;20037;-75
2021/09/01 11:49:09;;;;;;;1.25;0.00;;;19.40;99.90;;;;;;5074568;28;20032;-76
2021/09/01 11:51:36;;;;;;;0.65;0.00;;;19.40;99.90;;;;;;5074409;28;20025;-74
2021/09/01 11:54:02;;;;;;;0.98;0.00;;;19.50;99.90;;;;;;5074244;28;20056;-76
2021/09/01 11:56:28;;;;;;;1.52;0.10;;;19.60;99.90;;;;;;5075010;28;20027;-75
2021/09/01 11:59:06;;;;;;;0.60;0.00;;;19.70;99.90;;;;;;5074383;28;20497;-75
2021/09/01 12:01:36;;;;;;;1.85;0.00;;;19.90;99.90;;;;;;5074726;28;20024;-74
2021/09/01 12:04:02;;;;;;;3.00;0.00;;;19.90;99.90;;;;;;5056454;28;20020;-78
2021/09/01 12:06:39;;;;;;;1.05;0.35;;;19.80;99.90;;;;;;5074809;28;20032;-78
2021/09/01 12:09:08;;;;;;;2.00;0.00;;;19.90;99.90;;;;;;5074142;28;20083;-75
2021/09/01 12:11:34;;;;;;;;;;;20.00;99.90;;;;;;5056780;28;20482;-78
2021/09/01 12:14:03;;;;;;;2.65;0.00;;;20.10;99.90;;;;;;5055349;28;19908;-74
2021/09/01 12:16:31;;;;;;;1.23;0.00;;;20.10;99.90;;;;;;5073914;28;20024;-75
2021/09/01 12:19:01;;;;;;;0.80;0.10;;;20.20;99.90;;;;;;5055992;28;20013;-75
2021/09/01 12:21:50;;;;;;;5.63;0.35;;;20.20;99.90;;;;;;5073914;28;20020;-75
2021/09/01 12:24:17;;;;;;;0.52;0.00;;;20.20;99.90;;;;;;5073878;28;20105;-76
2021/09/01 12:27:04;;;;;;;2.05;0.00;;;20.20;99.90;;;;;;5073799;28;20025;-77
2021/09/01 12:32:07;;;;;;;1.77;0.00;;;20.40;99.90;;;;;;5091221;28;20040;-75
2021/09/01 12:34:39;;;;;;;1.95;0.00;;;20.60;99.90;;;;;;5075605;28;20102;-74
2021/09/01 12:37:11;;;;;;;0.15;0.00;;;20.80;99.90;;;;;;5094153;28;20500;-75
2021/09/01 12:39:50;;;;;;;2.53;0.00;;;20.80;99.90;;;;;;5075631;28;20028;-75
2021/09/01 12:42:24;;;;;;;0.32;0.00;;;20.80;99.90;;;;;;5076126;28;20024;-76
2021/09/01 12:45:03;;;;;;;1.58;0.10;;;20.90;99.90;;;;;;5093788;28;20510;-74
2021/09/01 12:47:30;;;;;;;0.30;0.00;;;20.80;99.90;;;;;;5093750;28;20035;-76
2021/09/01 12:49:57;;;;;;;0.40;0.00;;;20.80;99.90;;;;;;5075467;28;20072;-74
2021/09/01 12:52:24;;;;;;;0.28;0.17;;;20.80;99.90;;;;;;5093675;28;20507;-77
2021/09/01 12:54:52;;;;;;;1.85;0.00;;;20.80;99.90;;;;;;5093723;28;20026;-76
2021/09/01 12:57:17;;;;;;;5.33;0.13;;;20.70;99.90;;;;;;5075720;28;20016;-78